Pagina principale
METAR-TAF:

METAR-TAF

Aeroporti :

Aeroporto di Parigi-Le Bourget

Parigi, Francia

latitudine: 48-58N, longitudine: 002-27E, altezza: 66 m

Osservazione

Il bollettino è stato emesso 27 minuti fa, alle 22:30 UTC
Vento 5 kt da nord
Temperature 16°C
Umidità 51%
Pressione 1021 hPa
Visibilità 10 km o più
nessuna nube inferiore a 1500 m e nessun cumulonembo

METAR: LFPB 292230Z AUTO 36005KT CAVOK 16/06 Q1021

Ora: 00:57 (22:57 UTC)

Previsione

Il bollettino è stato emesso 5 ore e 57 minuti fa, alle 17:00 UTC
Previsione valida dal 29 alle 18 UTC al 30 alle 18 UTC
Vento 10 kt da est/nord-est
Visibilità 10 km o più
nessuna nube inferiore a 1500 m e nessun cumulonembo

TAF: LFPB 291700Z 2918/3018 07010KT CAVOK

Osservazioni e previsioni meteorologiche di più di 4000 aeroporti (messaggi METAR e TAF).

Le stazioni disponibili sono rappresentate dai dischi gialli e rossi sulla carta.

Puntare il mouse per vedere il nome della stazione.

Clicca sopra per visualizzare le osservazioni e previsioni meteorologiche.

Per cambiare la mappa : fare clic sui pulsanti verdi con una croce nera per ingrandire, il pulsante verde con un trattino per diminuire, o sulla freccia verde per le mappe adiacenti.


METAR-TAF: